Santa Fe, NM

10:31 PM MST en Enero 30, 2015 (GMT -0700)
Casa Solana | Change Station
CLOSE
Current Station
Estación meteorológica personal
Location: Santa Fe, NM
Altura: 6930 ft
Estaciones meteorológicas cercanas

Alt 6930 ft 35.69 °N, 105.96 °W | Updated 1 minute ago

Nublado
Nublado
32.1 ° F
Sensación térmica 32 ° F
N
1.0
Viento Variable Viento desde Oeste
Gusts 1.0 mph

Hoy
Alta -- | Baja -- ° F
--% Posibilidad de precipitaciones
Ayer
Alta -- | Baja -- ° F
Precip. -- pul
7:05 AM 5:29 PM
Gibosa creciente, 87% visible
Presión 30.05 pul
Visibilidad 10.0 Millas
Nubes Nublado 2800 ft
Vientos helados 32 ° F
Punto de rocío 31 ° F
Humedad 95%
Precipitaciones 0.00 pul
Espesor de la nieve No disponible.
UV 0 de una escala de 12
Polen .90 de una escala de 12
Calidad del aire No disponible.
Flu Activity No disponible.
METAR KSAF 310453Z AUTO 16009KT 10SM OVC028 M01/M03 A3005 RMK AO2 SLP176 P0001 T10061028

More Conditions Fewer Conditions

Presión 30.05 pul
Visibilidad 10.0 Millas
Nubes Nublado 2800 ft
Vientos helados 32 ° F
Punto de rocío 31 ° F
Humedad 95%
Precipitaciones 0.00 pul
Espesor de la nieve No disponible.
UV 0 de una escala de 12
Polen .90 de una escala de 12
Calidad del aire No disponible.
Flu Activity No disponible.
METAR KSAF 310453Z AUTO 16009KT 10SM OVC028 M01/M03 A3005 RMK AO2 SLP176 P0001 T10061028

More Conditions Fewer Conditions

10-Day Weather Forecast

Almanac

Astronomía

Jan. 30, 2015 Salida Puesta
Hora real
Crepúsculo civil
Crepúsculo náutico
Crepúsculo astronómico
Luna
Horas de luz
Horas de luz
Tomorrow will be .
, % of the Moon is Illuminated

Extremos de hoy

Máximos del estado Bajos del estado

Community

WunderPhotos

Upload Photos

1,792,005 ¡fotos cargadas!

WunderBlogs® & News

Nearby

Calidad del aire

  Calidad del aire Índice AQ Contaminante
Not available.

Grosos de nieve

Estación Profundido Altura

Actividad de terremotos

Ciudad Distance Mag. Tiempo y dato
Magnitud mínima muestra es 2,5.

Temperaturas de aguas costeras

Lugar Temperatura

Estaciones meteorológicas cercanas